San Jose Del Cabo, Mexique

15:31 MST le 09 février 2016 (GMT -0700)
El Zacatal | | Change Station
CLOSE
Current Station
Stations météorologiques personnelles
Location: San Jose del Cabo, BAJA CALIFORNIA SUR
Altitude: 128 ft
Stations météo à proximité

Alt. 128 ft 23.10 °N, 109.71 °W | Updated 11 minutes ago

Clear
Ciel dégagé
81.6 ° F
Paraît 83 ° F
N
8.0
Vent Variable Vent de Sud
Gusts 16.0 mph

Aujourd'hui
Haut(e) -- | Bas -- ° F
--% Risque de précip.
Hier
Haut(e) -- | Bas -- ° F
Precip. -- pouce
Pression 29.97 pouce
Visibilité 10.0 Miles terrestres
Nuages Ciel dégagé
indice de chaleur 83 ° F
Point de rosée 62 ° F
Humidité 52%
Précipitations 0.00 pouce
Profondeur de la couche neigeuse Non disponible.
6:55 AM 6:11 PM
Nouvelle lune, 2% visible
METAR MMSL 092147Z 14012KT 10SM SKC 28/12 A2997 RMK AC CI
Pression 29.97 pouce
Visibilité 10.0 Miles terrestres
Nuages Ciel dégagé
indice de chaleur 83 ° F
Point de rosée 62 ° F
Humidité 52%
Précipitations 0.00 pouce
Profondeur de la couche neigeuse Non disponible.
6:55 AM 6:11 PM
Nouvelle lune, 2% visible
METAR MMSL 092147Z 14012KT 10SM SKC 28/12 A2997 RMK AC CI

10-Day Weather Forecast

No radar image for this location.
×

Almanac

Astronomie

Feb. 09, 2016 Lever Coucher
Temps réel
Crépuscule civil
Crépuscule nautique
Crépuscule astronomique
Lune
Durée de lumière visible
Longueur du jour
Tomorrow will be .
, % of the Moon is Illuminated

Extrêmes aujourd'hui

Country Highs Country Lows

Community

WunderPhotos

Upload Photos

1,891,725 Photos téléchargées !

WunderBlog® & News

Nearby

Qualité de l'air

  Qualité de l'air Indice de la qualité de l'air Polluant
Not available.

Épaisseur de neige

Station Depth Altitude

Activité sismique

Ville Distance Mag. Time & Date
Minimum magnitude displayed is 2.5.

Températures des eaux côtières

Lieu Température

Stations

Stations météo à proximité

Emplacement de la station Température Refroidissement éolien Point de rosée Humidité Vent Precip. Alt. Mise à jour Type